Aérodrome :
LOGIN :

S'inscrire | Disclaimer

   EN    FR    IT 

 










Légende :    VFR   VFR Marginal   IFR   IFR Intensif   IFR Très Intensif
Visi : 
Plafond : 
>= 8 km
>= 3000ft
5 à 8 km
1000 à 3000 ft
1500m à 5 km
500 à 1000 ft
800 à 1500m
200 à 500 ft
< 800m
< 200 ft
Symboles :   Orages  Brouillard  Fortes neiges  Fortes précipitations  Vent > 20 kt
SIGMETs :   Divers  Orages  Givrage  Turbulence  Onde Orograph.  Cendres Volcan.






- Altitude de l'aérodrome : 0 ft


ENSL - Sleipner A Platform

DERNIER METAR :
  • 150150Z AUTO 21025KT 9999NDV BKN028/// 07/01 Q0978 W05/S4

METARs EXPIRÉS :
  • 150120Z AUTO 21021KT 9999NDV FEW022/// BKN046/// 07/02 Q0979 W05/S4
  • 150050Z AUTO 22026KT 9999NDV -SHRA FEW028/// BKN052/// 07/02 Q0979 W05/S4
  • 150020Z AUTO 23018KT 9999NDV BKN021/// 06/02 Q0979 W05/S4
  • 142350Z AUTO 23025KT 9999NDV -SHRA BKN024/// 07/02 Q0978 W05/S4
  • 142320Z AUTO 23017KT 9999NDV FEW021/// SCT024/// BKN043/// 07/02 Q0979 W05/S4

Prévision TAF périmée.



MET'MAP, la Météo Aéronautique d'un coup d'oeil ! - Copyright ORBIFLY Décembre 2007 - Disclaimer

ORBIFLY MET'MAP TEAM :

Programmation & Développement : Alexandra Zaïnal
Sur une idée originale de : Baudouin d'Aumeries
Assistance à la programmation : Marc-Olivier Méhu
Soutien technique & logistique : Manuel Goepfert

Contact : metmap@orbifly.com




SOURCES & CREDITS :

   NOAA